BE297 / G-PRPA 7700 Squawk Report (14th of February, 2019)

Aircraft DH8D Reg No. G-PRPA Age N/A
Model DHC-8 Turboprop engines 2 First flight 12-07
Registered 27-05-15 Rollout 11-07 Delivered 08-01-08
Construction No. 4187 Line No. N/A Series Q-402
ADSHEX 406D97 Airline name FlyBE Owner N/A
Airfield based Exeter~Devon~G First tracked 2017-07-13 08:04:00

Flight history for G-PRPA

Route Flight No Date Playback
City (LCY) - Exeter (EXT) BE1308 2019-03-20 18:25:00
Schiphol (AMS) - City (LCY) BE1376 2019-03-20 17:55:00
Exeter (EXT) - Schiphol (AMS) BE1533 2019-03-20 14:44:00
Manchester (MAN) - Exeter (EXT) BE372 2019-03-20 13:52:00
Southampton (SOU) - Manchester (MAN) BE861 2019-03-20 07:29:00
Dublin (DUB) - Southampton (SOU) BE388 2019-03-20 07:01:00
Southampton (SOU) - Dublin (DUB) BE387 2019-03-19 19:25:00
Dublin (DUB) - Southampton (SOU) BE386 2019-03-19 19:05:00
Southampton (SOU) - Dublin (DUB) BE385 2019-03-19 15:22:00
Dublin (DUB) - Southampton (SOU) BE382 2019-03-19 15:04:00
Southampton (SOU) - Dublin (DUB) BE381 2019-03-19 07:16:00
Dusseldorf (DUS) - Southampton (SOU) BE1898 2019-03-19 07:01:00
Southampton (SOU) - Dusseldorf (DUS) BE1897 2019-03-18 19:21:00
Belfast City (BHD) - Southampton (SOU) BE985 2019-03-18 18:06:00
Southampton (SOU) - Belfast City (BHD) BE984 2019-03-18 15:05:00
Edinburgh (EDI) - Southampton (SOU) BE763 2019-03-18 12:10:00
Southampton (SOU) - Edinburgh (EDI) BE762 2019-03-18 09:44:00
Edinburgh (EDI) - Southampton (SOU) BE761 2019-03-18 08:45:00
Birmingham (BHX) - Edinburgh (EDI) BE850 2019-03-17 18:07:00
Edinburgh (EDI) - Birmingham (BHX) BE849 2019-03-17 16:30:00
Time Lat Lon Altitude Heading Speed Vertical Rate
2019-02-14 21:09:02 GMT 54.937786 -2.938427 10,000 338 265 0
2019-02-14 21:08:57 GMT 54.931316 -2.934265 10,000 338 265 0
2019-02-14 21:08:49 GMT 54.920887 -2.927524 10,000 338 265 0
2019-02-14 21:08:39 GMT 54.904919 -2.917369 10,000 338 265 0
2019-02-14 21:08:23 GMT 54.886997 -2.906133 10,000 338 265 0
2019-02-14 21:08:16 GMT 54.876896 -2.898227 10,000 338 265 0
2019-02-14 21:08:06 GMT 54.865582 -2.889571 10,000 338 265 0
2019-02-14 21:07:52 GMT 54.848686 -2.877170 10,000 338 265 0
2019-02-14 21:07:38 GMT 54.832298 -2.865268 10,000 338 265 0
2019-02-14 21:07:30 GMT 54.822521 -2.858110 10,000 338 265 0
2019-02-14 21:07:25 GMT 54.817822 -2.854614 10,000 338 265 0
2019-02-14 21:07:13 GMT 54.803391 -2.844460 10,000 338 265 0
2019-02-14 21:07:00 GMT 54.787979 -2.833224 10,000 338 265 0
2019-02-14 21:06:53 GMT 54.778576 -2.825900 10,000 338 265 0
2019-02-14 21:06:42 GMT 54.765404 -2.814997 10,000 338 265 0
2019-02-14 21:05:36 GMT 54.695183 -2.762210 10,000 338 265 0
2019-02-14 21:05:22 GMT 54.677246 -2.752153 10,000 337 261 0
2019-02-14 21:04:47 GMT 54.637959 -2.724381 10,000 337 240 0
2019-02-14 21:04:37 GMT 54.627544 -2.716841 10,000 338 249 -180
2019-02-14 21:04:26 GMT 54.615841 -2.708379 10,000 338 256 -780
2019-02-14 21:03:37 GMT 54.559689 -2.669178 10,075 338 256 -780
2019-02-14 21:03:32 GMT 54.553406 -2.664934 10,250 338 256 -780
2019-02-14 21:02:14 GMT 54.475403 -2.610954 11,550 337 263 -4920
2019-02-14 21:02:04 GMT 54.464157 -2.602783 11,825 337 267 0
2019-02-14 21:01:52 GMT 54.451733 -2.594110 11,875 337 269 3000
2019-02-14 21:01:42 GMT 54.438847 -2.584109 11,725 338 278 -2760
2019-02-14 21:01:27 GMT 54.421078 -2.571332 12,050 338 258 -2100
2019-02-14 21:01:17 GMT 54.409664 -2.563731 12,675 337 278 -2400
2019-02-14 21:01:06 GMT 54.396580 -2.554385 13,125 336 274 -2280
2019-02-14 21:00:56 GMT 54.384968 -2.548215 13,550 332 294 -3180
2019-02-14 21:00:42 GMT 54.368019 -2.533223 14,275 338 271 -2340
2019-02-14 21:00:30 GMT 54.353512 -2.521955 14,725 341 259 -2580
2019-02-14 21:00:19 GMT 54.340977 -2.514818 15,225 333 262 -2280
2019-02-14 21:00:08 GMT 54.329041 -2.504547 15,775 340 272 -2040
2019-02-14 20:59:57 GMT 54.315929 -2.496765 16,150 336 277 -2040
2019-02-14 20:59:47 GMT 54.303814 -2.485758 16,575 337 256 -2400
2019-02-14 20:59:36 GMT 54.291740 -2.477260 17,000 337 279 -3000
2019-02-14 20:59:24 GMT 54.277431 -2.466969 17,500 331 235 -1560
2019-02-14 20:59:12 GMT 54.263374 -2.456018 17,850 340 326 -2340
2019-02-14 20:59:02 GMT 54.251480 -2.447234 18,225 338 275 -4860
2019-02-14 20:58:52 GMT 54.239517 -2.438385 18,650 336 292 60
2019-02-14 20:58:41 GMT 54.226242 -2.429138 19,175 335 295 -3120
2019-02-14 20:58:31 GMT 54.213020 -2.419212 19,600 337 285 -3540
2019-02-14 20:58:20 GMT 54.200104 -2.410337 19,900 337 310 -660
2019-02-14 20:58:09 GMT 54.185062 -2.399982 20,200 341 301 -1500
2019-02-14 20:57:59 GMT 54.156708 -2.386611 20,550 350 290 -1200
2019-02-14 20:57:48 GMT 54.156708 -2.386611 20,750 355 311 -60
2019-02-14 20:57:37 GMT 54.121426 -2.381993 21,000 356 311 0
2019-02-14 20:57:24 GMT 54.107555 -2.379917 21,000 354 319 0
2019-02-14 20:57:14 GMT 54.107555 -2.379917 21,000 354 330 -60
2019-02-14 20:57:02 GMT 54.089787 -2.378958 21,000 354 306 60
2019-02-14 20:56:52 GMT 54.075680 -2.376756 21,025 358 338 60
2019-02-14 20:56:41 GMT 54.042595 -2.374642 21,000 354 343 0
2019-02-14 20:56:30 GMT 54.042595 -2.374642 21,000 355 353 -60
2019-02-14 20:56:19 GMT 54.026871 -2.373186 21,000 358 298 -360
2019-02-14 20:56:09 GMT 54.012119 -2.372196 21,025 358 306 540
2019-02-14 20:55:58 GMT 53.996605 -2.371191 21,050 356 274 1500
2019-02-14 20:55:48 GMT 53.983158 -2.370284 21,050 355 315 3120
2019-02-14 20:55:38 GMT 53.967319 -2.368160 20,750 354 300 5100
2019-02-14 20:55:27 GMT 53.952835 -2.367904 20,375 353 305 2700
2019-02-14 20:55:15 GMT 53.935947 -2.364828 20,050 355 292 -1080
2019-02-14 20:55:05 GMT 53.906200 -2.361509 19,750 352 286 2400
2019-02-14 20:54:54 GMT 53.906200 -2.361509 19,500 1 272 1500
2019-02-14 20:54:43 GMT 53.892345 -2.362276 19,175 350 296 1140
2019-02-14 20:54:32 GMT 53.873264 -2.359143 18,825 353 257 2220
2019-02-14 20:54:22 GMT 53.861439 -2.356831 18,525 1 273 1560
2019-02-14 20:54:11 GMT 53.847534 -2.357432 18,200 351 331 1920
2019-02-14 20:54:00 GMT 53.816994 -2.352036 17,725 355 266 2640
2019-02-14 20:53:50 GMT 53.800781 -2.349802 17,375 355 328 2040
2019-02-14 20:53:39 GMT 53.800781 -2.349802 17,100 355 284 1800
2019-02-14 20:53:28 GMT 53.786503 -2.348069 16,750 356 331 1860
2019-02-14 20:53:17 GMT 53.769650 -2.346492 16,375 1 271 900
2019-02-14 20:53:05 GMT 53.754570 -2.347074 16,025 8 324 2340
2019-02-14 20:52:53 GMT 53.736069 -2.350105 15,525 8 279 2880
2019-02-14 20:52:41 GMT 53.719887 -2.354029 15,175 7 321 1980
2019-02-14 20:52:31 GMT 53.705242 -2.357074 14,875 8 292 2100
2019-02-14 20:52:21 GMT 53.691837 -2.360272 14,550 6 322 1680
2019-02-14 20:52:10 GMT 53.662594 -2.367225 14,200 9 288 2160
2019-02-14 20:52:00 GMT 53.662594 -2.367225 13,875 6 287 3720
2019-02-14 20:51:49 GMT 53.648045 -2.370208 13,500 5 310 1920
2019-02-14 20:51:38 GMT 53.616440 -2.376090 12,925 5 327 4680
2019-02-14 20:51:27 GMT 53.616440 -2.376090 12,525 7 273 2400
2019-02-14 20:51:13 GMT 53.598892 -2.381111 12,075 2 292 900
2019-02-14 20:51:02 GMT 53.584007 -2.382379 11,725 7 292 8340
2019-02-14 20:50:52 GMT 53.570740 -2.385286 11,250 8 279 -2760
2019-02-14 20:50:41 GMT 53.557011 -2.388384 10,900 7 290 3840
2019-02-14 20:50:31 GMT 53.543655 -2.391255 10,600 6 245 3840
2019-02-14 20:50:21 GMT 53.529800 -2.394002 10,050 7 295 1020
2019-02-14 20:50:11 GMT 53.516262 -2.396957 9,625 7 289 1800
2019-02-14 20:50:01 GMT 53.502975 -2.399770 9,275 8 291 3060
2019-02-14 20:49:51 GMT 53.476738 -2.405833 8,875 8 306 2700
2019-02-14 20:49:41 GMT 53.476738 -2.405833 8,475 8 252 1560
2019-02-14 20:49:29 GMT 53.462055 -2.409140 8,075 7 272 1860
2019-02-14 20:49:19 GMT 53.449551 -2.411779 7,675 13 354 1680
2019-02-14 20:49:09 GMT 53.435719 -2.416082 7,200 2 218 1800
2019-02-14 20:48:59 GMT 53.423847 -2.419301 6,750 7 299 1080
2019-02-14 20:48:47 GMT 53.409031 -2.422577 6,375 6 310
2019-02-14 20:48:37 GMT 53.395645 -2.425825 6,075 7 293

Making use of Plane Finder data

You are free to use the raw flight data, aircraft information and images provided in this report for your own purposes provided the data is correctly attributed to Plane Finder. We ask that you please credit Plane Finder and link to planefinder.net in close proximity to the content.

Optionally one of the following logos (no smaller then 150x24px) can be used and must link to planefinder.net

Embedding the Plane Finder map

You are welcome to embed the Plane Finder playback map on your website to offer visitors a more interactive experience. We suggest using the following HTML code:

<iframe src="//planefinder.net/data/report/BE297-G-PRPA-7700-squawk-2019-02-14/map" width="800" height="600" seamless="seamless"></iframe>

Where our data comes from

Plane Finder has a global network of data feeds and antenna radars that receive data broadcast directly from aircraft. The primary technologies used are ADS-B and MLAT. We also show feeds from the FAA and a FLARM glider feed.

Click here to find out more about the Plane Finder network.

How we collect our data